Main page
Satellite images 10-day forecastsClimateMarine weather Cyclones Lightning AirportsFAQ Newsletter About
Weather : Europe Africa North America South America Asia Australia-Oceania Others
Languages Contact

Waddington, England

RAF Waddington

latitude: 53-10N, longitude: 000-31W, elevation: 68 m


METAR: EGXW 040150Z 26015KT CAVOK 04/M01 Q1016 BLU
TAF: missing

Time: 02:47 (02:47 UTC)

Current weather observation

The report was made 57 minutes ago, at 01:50 UTC
Wind 15 kt from the West
Temperature 4°C
Humidity 70%
Pressure 1016 hPa
Visibility 10 km or more
no clouds below 1500 m and no cumulonimbus

Change units
The information on this site is subject to a disclaimer
Weather : Europe Africa North America South America Asia Australia-Oceania Others
Satellite images 10-day forecastsClimateMarine weather Cyclones Lightning AirportsFAQ Languages Contact Newsletter About